Tropical Cyclones
[Index]
Main Index Home Page Stock Weather Photos Extreme Storms Discussion Storm News and Storm Chasing Reports Tropical Cyclones / Hurricanes / Typhoons Weather Data and Links Wild Fires / Bushfires Weather Observation Techniques Weather Picture Catalogue Tornado Pictures and Reports Stock Video Footage and DVDs for sale
Season 1981-1982 Tropical Cyclone GRAHAM Track Map
Season 1981-1982 Summaries: [BoM-AU] [JTWC-AU] [JTWC-SIO] [JTWC-SPAC] [JTWC-SH]
<<- Previous TC | BoM 1981-1982 Season | Next TC ->>

click for intensity scale information  Lat/long Grid: Show Hide

 Date Labels: Show Hide

Bureau of Meteorology Tropical Cyclone Data

Name: GRAHAM
Number: 629 / 198182_10

27 Jan 1982 00:00 UTC to 02 Feb 1982 00:00 UTC

    date/time    lat    long    hPa   cat  kts
1982-01-27 00   15.7   120.0   1002                     
1982-01-27 03   15.9   120.2   1002                     
1982-01-27 06   16.0   120.5   1001                     
1982-01-27 09   16.2   120.8   1001                     
1982-01-27 12   16.3   121.0   1000                     
1982-01-27 15   16.4   121.3    999                     
1982-01-27 18   16.5   121.6    998                     
1982-01-27 21   16.6   122.0    996                     
1982-01-28 00   16.7   122.3    994    1                
1982-01-28 03   16.7   122.7    991    1                
1982-01-28 06   16.8   123.0    988    1                
1982-01-28 09   16.8   123.3    990    1                
1982-01-28 12   16.9   123.5    991    1                
1982-01-28 15   17.0   123.8    990    1                
1982-01-28 18   17.1   124.1    992    1                
1982-01-28 21   17.3   124.3    994    1                
1982-01-29 00   17.5   124.6    995    1                
1982-01-29 03   17.8   124.9    996                     
1982-01-29 06   18.0   125.1    996                     
1982-01-29 09   18.3   125.2    997                     
1982-01-29 12   18.5   125.3    998                     
1982-01-29 15   18.7   125.2    998                     
1982-01-29 18   18.9   125.1    999                     
1982-01-29 21   19.0   124.9    999                     
1982-01-30 00   19.0   124.6    999                     
1982-01-30 03   19.0   124.1    999                     
1982-01-30 06   19.0   123.5    999                     
1982-01-30 09   19.1   123.1    999                     
1982-01-30 12   19.3   122.7    999                     
1982-01-30 15   19.3   122.4    999                     
1982-01-30 18   19.3   122.1    999                     
1982-01-30 21   19.2   121.8    999                     
1982-01-31 00   19.2   121.6    999                     
1982-01-31 03   18.8   121.2    994    1                
1982-01-31 06   18.9   120.7    985    2                
1982-01-31 09   19.2   120.4    985    2                
1982-01-31 12   19.5   120.0    982    2                
1982-01-31 15   19.7   119.8    982    2                
1982-01-31 18   19.9   119.5    980    2                
1982-01-31 21   20.3   119.1    980    2                
1982-02-01 00   20.6   118.6    982    2                
1982-02-01 03   20.9   118.1    990    1                
1982-02-01 06   21.3   117.7    994    1                
1982-02-01 09   21.8   117.2    997                     
1982-02-01 12   22.1   116.9    999                     
1982-02-01 15   22.5   116.5   1000                     
1982-02-01 18   22.7   116.0   1001                     
1982-02-01 21   22.7   115.5   1001                     
1982-02-02 00   22.8   114.8   1002                     
Winds are 10-min average.

Tropical cyclone tracks developed by Michael Bath using data from the Bureau of Meteorology and Google Maps.


[Australian Severe Weather index] [Copyright Notice] [Email Contacts] [Search This Site] [Privacy Policy]
Document: tropical_cyclone_graham.htm Updated: 30 May 2013